首页
METAR-TAF:

METAR-TAF

机场 :

新山一國際機場

胡志明, 越南

纬度: 10-49N, 经度: 106-40E, 海拔: 19米

当前天气观测

该预报发布于40分钟前的11:30 UTC
风速6节,风向南转西南
温度 28°C
湿度 94%
气压 1008 hPa
能見度: 8000
少量云层高于1500英尺
阴天层高于4000英尺
小雨,

METAR: VVTS 301130Z 21006KT 8000 -RA FEW015 OVC040 28/27 Q1008 NOSIG

时间: 19:10 (12:10 UTC)

预报

该预报发布于1小时和10分钟前的11:00 UTC
预报有效从30日的 12点(UTC)到 31日的 18点(UTC)
风速8节,风向西
能见度10公里或以上
散云层高于1700英尺
散云层高于4000英尺
短暂存在
从 30日的 12点(UTC)到 30日的 18点(UTC)
能見度: 5000
散云层高于1500英尺
少量云层高于1700英尺, 积雨云.
多云层高于4000英尺
阵雨
短暂存在
从 31日的 06点(UTC)到 31日的 12点(UTC)
风速15节,风向西,有时为28节阵风
能見度: 3000
散云层高于1300英尺
散云层高于1500英尺, 积雨云.
雷暴, 雨,

TAF: VVTS 301100Z 3012/3118 28008KT 9999 SCT017 SCT040 TEMPO 3012/3018 5000 SHRA SCT015 FEW017CB BKN040 TEMPO 3106/3112 28015G28KT 3000 TSRA SCT013 SCT015CB

超过4000个机场的气象观测和天气预报(METAR&TAF报告)。

可查询的气象台以黄色和红色小点在地图上表示。

将鼠标移到小点上方,可查看气象台名称。

然后点击查看天气观测和预报。

如需切换地图:点击带黑十字的绿色按钮放大地图;点击带横线的绿色按钮缩小地图;或者点击绿色箭头查看邻近地区的地图。


METAR-TAF: